sensor_id;sensor_type;location;lat;lon;timestamp;P1;durP1;ratioP1;P2;durP2;ratioP2
62990;SDS011;49084;48.204;16.202;2023-02-01T00:01:48;0.88;;;0.88;;
62990;SDS011;49084;48.204;16.202;2023-02-01T00:04:14;0.80;;;0.80;;
62990;SDS011;49084;48.204;16.202;2023-02-01T00:06:40;1.10;;;1.00;;
62990;SDS011;49084;48.204;16.202;2023-02-01T00:09:05;0.80;;;0.63;;
62990;SDS011;49084;48.204;16.202;2023-02-01T00:11:31;1.45;;;1.05;;
62990;SDS011;49084;48.204;16.202;2023-02-01T00:13:57;1.77;;;0.90;;
62990;SDS011;49084;48.204;16.202;2023-02-01T00:16:23;0.73;;;0.70;;
62990;SDS011;49084;48.204;16.202;2023-02-01T00:18:51;1.15;;;0.73;;
62990;SDS011;49084;48.204;16.202;2023-02-01T00:21:32;1.15;;;0.90;;
62990;SDS011;49084;48.204;16.202;2023-02-01T00:23:58;2.47;;;1.30;;
62990;SDS011;49084;48.204;16.202;2023-02-01T00:26:30;2.65;;;0.80;;
62990;SDS011;49084;48.204;16.202;2023-02-01T00:28:58;4.82;;;1.45;;
62990;SDS011;49084;48.204;16.202;2023-02-01T00:31:24;1.52;;;1.13;;
62990;SDS011;49084;48.204;16.202;2023-02-01T00:33:49;1.45;;;1.13;;
62990;SDS011;49084;48.204;16.202;2023-02-01T00:36:15;1.30;;;1.00;;
62990;SDS011;49084;48.204;16.202;2023-02-01T00:38:42;2.63;;;1.23;;
62990;SDS011;49084;48.204;16.202;2023-02-01T00:41:10;2.20;;;1.10;;
62990;SDS011;49084;48.204;16.202;2023-02-01T00:43:37;1.67;;;1.20;;
62990;SDS011;49084;48.204;16.202;2023-02-01T00:46:04;1.92;;;1.42;;
62990;SDS011;49084;48.204;16.202;2023-02-01T00:48:30;3.80;;;1.15;;
62990;SDS011;49084;48.204;16.202;2023-02-01T00:51:03;1.90;;;1.38;;
62990;SDS011;49084;48.204;16.202;2023-02-01T00:53:31;1.73;;;1.45;;
62990;SDS011;49084;48.204;16.202;2023-02-01T00:55:57;1.83;;;1.67;;
62990;SDS011;49084;48.204;16.202;2023-02-01T00:58:23;1.63;;;1.52;;
62990;SDS011;49084;48.204;16.202;2023-02-01T01:00:59;3.63;;;1.63;;
62990;SDS011;49084;48.204;16.202;2023-02-01T01:03:44;2.78;;;1.42;;
62990;SDS011;49084;48.204;16.202;2023-02-01T01:06:12;2.75;;;1.85;;
62990;SDS011;49084;48.204;16.202;2023-02-01T01:08:44;2.17;;;1.38;;
62990;SDS011;49084;48.204;16.202;2023-02-01T01:11:14;1.67;;;1.55;;
62990;SDS011;49084;48.204;16.202;2023-02-01T01:13:42;2.15;;;1.58;;
62990;SDS011;49084;48.204;16.202;2023-02-01T01:16:09;2.95;;;1.45;;
62990;SDS011;49084;48.204;16.202;2023-02-01T01:18:36;1.00;;;1.00;;
62990;SDS011;49084;48.204;16.202;2023-02-01T01:21:03;0.75;;;0.75;;
62990;SDS011;49084;48.204;16.202;2023-02-01T01:23:29;1.60;;;1.10;;
62990;SDS011;49084;48.204;16.202;2023-02-01T01:25:55;0.80;;;0.80;;
62990;SDS011;49084;48.204;16.202;2023-02-01T01:28:21;0.90;;;0.90;;
62990;SDS011;49084;48.204;16.202;2023-02-01T01:30:47;0.80;;;0.80;;
62990;SDS011;49084;48.204;16.202;2023-02-01T01:33:12;0.80;;;0.70;;
62990;SDS011;49084;48.204;16.202;2023-02-01T01:35:38;0.60;;;0.60;;
62990;SDS011;49084;48.204;16.202;2023-02-01T01:38:04;1.13;;;0.80;;
62990;SDS011;49084;48.204;16.202;2023-02-01T01:40:30;1.30;;;1.00;;
62990;SDS011;49084;48.204;16.202;2023-02-01T01:42:56;2.20;;;1.65;;
62990;SDS011;49084;48.204;16.202;2023-02-01T01:45:24;3.25;;;1.20;;
62990;SDS011;49084;48.204;16.202;2023-02-01T01:47:53;2.40;;;1.60;;
62990;SDS011;49084;48.204;16.202;2023-02-01T01:52:53;1.60;;;1.50;;
62990;SDS011;49084;48.204;16.202;2023-02-01T01:55:20;2.05;;;1.88;;
62990;SDS011;49084;48.204;16.202;2023-02-01T01:57:54;2.08;;;1.75;;
62990;SDS011;49084;48.204;16.202;2023-02-01T02:00:24;3.42;;;1.80;;
62990;SDS011;49084;48.204;16.202;2023-02-01T02:02:53;1.58;;;1.48;;
62990;SDS011;49084;48.204;16.202;2023-02-01T02:05:23;2.20;;;1.75;;
62990;SDS011;49084;48.204;16.202;2023-02-01T02:07:50;1.63;;;1.40;;
62990;SDS011;49084;48.204;16.202;2023-02-01T02:10:18;1.45;;;1.30;;
62990;SDS011;49084;48.204;16.202;2023-02-01T02:12:44;1.90;;;1.50;;
62990;SDS011;49084;48.204;16.202;2023-02-01T02:15:13;2.83;;;1.40;;
62990;SDS011;49084;48.204;16.202;2023-02-01T02:31:58;3.05;;;1.20;;
62990;SDS011;49084;48.204;16.202;2023-02-01T02:35:13;1.40;;;1.27;;
62990;SDS011;49084;48.204;16.202;2023-02-01T02:38:16;1.42;;;1.15;;
62990;SDS011;49084;48.204;16.202;2023-02-01T02:46:41;2.03;;;1.20;;
62990;SDS011;49084;48.204;16.202;2023-02-01T02:52:56;2.67;;;2.20;;
62990;SDS011;49084;48.204;16.202;2023-02-01T02:55:47;1.08;;;0.98;;
62990;SDS011;49084;48.204;16.202;2023-02-01T02:58:15;1.05;;;1.00;;
62990;SDS011;49084;48.204;16.202;2023-02-01T03:01:00;1.20;;;1.10;;
62990;SDS011;49084;48.204;16.202;2023-02-01T03:03:46;2.75;;;1.60;;
62990;SDS011;49084;48.204;16.202;2023-02-01T03:06:31;1.45;;;1.20;;
62990;SDS011;49084;48.204;16.202;2023-02-01T03:08:58;2.42;;;1.42;;
62990;SDS011;49084;48.204;16.202;2023-02-01T03:11:25;1.60;;;1.35;;
62990;SDS011;49084;48.204;16.202;2023-02-01T03:14:11;1.90;;;1.35;;
62990;SDS011;49084;48.204;16.202;2023-02-01T03:16:42;2.67;;;1.58;;
62990;SDS011;49084;48.204;16.202;2023-02-01T03:19:21;1.40;;;1.23;;
62990;SDS011;49084;48.204;16.202;2023-02-01T03:21:50;1.52;;;1.27;;
62990;SDS011;49084;48.204;16.202;2023-02-01T03:24:28;1.88;;;1.67;;
62990;SDS011;49084;48.204;16.202;2023-02-01T03:29:48;2.00;;;1.80;;
62990;SDS011;49084;48.204;16.202;2023-02-01T03:32:23;2.00;;;1.77;;
62990;SDS011;49084;48.204;16.202;2023-02-01T03:34:49;2.05;;;1.70;;
62990;SDS011;49084;48.204;16.202;2023-02-01T03:37:17;2.13;;;1.83;;
62990;SDS011;49084;48.204;16.202;2023-02-01T03:39:49;2.47;;;2.00;;
62990;SDS011;49084;48.204;16.202;2023-02-01T03:42:24;3.42;;;1.98;;
62990;SDS011;49084;48.204;16.202;2023-02-01T03:47:47;3.17;;;1.67;;
62990;SDS011;49084;48.204;16.202;2023-02-01T03:50:21;3.45;;;2.70;;
62990;SDS011;49084;48.204;16.202;2023-02-01T03:55:18;3.90;;;2.33;;
62990;SDS011;49084;48.204;16.202;2023-02-01T03:58:21;2.67;;;2.20;;
62990;SDS011;49084;48.204;16.202;2023-02-01T04:00:43;2.63;;;2.28;;
62990;SDS011;49084;48.204;16.202;2023-02-01T04:03:19;4.97;;;2.50;;
62990;SDS011;49084;48.204;16.202;2023-02-01T04:05:46;4.15;;;2.47;;
62990;SDS011;49084;48.204;16.202;2023-02-01T04:08:13;8.13;;;3.42;;
62990;SDS011;49084;48.204;16.202;2023-02-01T04:10:39;3.10;;;2.35;;
62990;SDS011;49084;48.204;16.202;2023-02-01T04:13:04;3.42;;;2.22;;
62990;SDS011;49084;48.204;16.202;2023-02-01T04:15:30;3.97;;;2.53;;
62990;SDS011;49084;48.204;16.202;2023-02-01T04:17:56;2.97;;;2.50;;
62990;SDS011;49084;48.204;16.202;2023-02-01T04:20:21;2.42;;;1.92;;
62990;SDS011;49084;48.204;16.202;2023-02-01T04:22:47;3.00;;;2.40;;
62990;SDS011;49084;48.204;16.202;2023-02-01T04:25:13;2.92;;;2.45;;
62990;SDS011;49084;48.204;16.202;2023-02-01T04:27:38;3.08;;;2.60;;
62990;SDS011;49084;48.204;16.202;2023-02-01T04:30:04;4.88;;;2.88;;
62990;SDS011;49084;48.204;16.202;2023-02-01T04:32:34;3.75;;;2.92;;
62990;SDS011;49084;48.204;16.202;2023-02-01T04:35:01;3.17;;;2.75;;
62990;SDS011;49084;48.204;16.202;2023-02-01T04:37:26;4.97;;;3.00;;
62990;SDS011;49084;48.204;16.202;2023-02-01T04:39:52;3.58;;;2.67;;
62990;SDS011;49084;48.204;16.202;2023-02-01T04:42:18;3.70;;;2.38;;
62990;SDS011;49084;48.204;16.202;2023-02-01T04:44:43;4.97;;;2.80;;
62990;SDS011;49084;48.204;16.202;2023-02-01T04:47:09;4.07;;;2.60;;
62990;SDS011;49084;48.204;16.202;2023-02-01T04:49:35;5.18;;;2.25;;
62990;SDS011;49084;48.204;16.202;2023-02-01T04:52:01;4.38;;;2.42;;
62990;SDS011;49084;48.204;16.202;2023-02-01T04:54:26;2.92;;;2.63;;
62990;SDS011;49084;48.204;16.202;2023-02-01T04:56:52;4.78;;;2.53;;
62990;SDS011;49084;48.204;16.202;2023-02-01T04:59:18;4.25;;;2.80;;
62990;SDS011;49084;48.204;16.202;2023-02-01T05:01:43;5.85;;;2.90;;
62990;SDS011;49084;48.204;16.202;2023-02-01T05:04:09;5.32;;;2.38;;
62990;SDS011;49084;48.204;16.202;2023-02-01T05:06:35;2.45;;;2.25;;
62990;SDS011;49084;48.204;16.202;2023-02-01T05:09:00;3.40;;;2.50;;
62990;SDS011;49084;48.204;16.202;2023-02-01T05:11:26;2.22;;;2.03;;
62990;SDS011;49084;48.204;16.202;2023-02-01T05:14:10;2.67;;;2.38;;
62990;SDS011;49084;48.204;16.202;2023-02-01T05:16:36;2.92;;;2.47;;
62990;SDS011;49084;48.204;16.202;2023-02-01T05:19:01;3.72;;;2.70;;
62990;SDS011;49084;48.204;16.202;2023-02-01T05:21:27;4.22;;;2.65;;
62990;SDS011;49084;48.204;16.202;2023-02-01T05:23:53;3.08;;;2.20;;
62990;SDS011;49084;48.204;16.202;2023-02-01T05:26:37;2.97;;;2.35;;
62990;SDS011;49084;48.204;16.202;2023-02-01T05:29:04;6.07;;;2.60;;
62990;SDS011;49084;48.204;16.202;2023-02-01T05:31:30;3.40;;;2.40;;
62990;SDS011;49084;48.204;16.202;2023-02-01T05:33:56;4.45;;;2.67;;
62990;SDS011;49084;48.204;16.202;2023-02-01T05:36:22;3.58;;;2.80;;
62990;SDS011;49084;48.204;16.202;2023-02-01T05:38:48;3.92;;;2.92;;
62990;SDS011;49084;48.204;16.202;2023-02-01T05:41:13;4.10;;;2.55;;
62990;SDS011;49084;48.204;16.202;2023-02-01T05:43:39;3.10;;;2.00;;
62990;SDS011;49084;48.204;16.202;2023-02-01T05:46:04;3.95;;;2.58;;
62990;SDS011;49084;48.204;16.202;2023-02-01T05:48:30;5.68;;;2.67;;
62990;SDS011;49084;48.204;16.202;2023-02-01T05:50:56;4.03;;;2.47;;
62990;SDS011;49084;48.204;16.202;2023-02-01T05:53:22;4.05;;;2.65;;
62990;SDS011;49084;48.204;16.202;2023-02-01T05:55:47;5.15;;;3.42;;
62990;SDS011;49084;48.204;16.202;2023-02-01T05:58:13;2.60;;;2.25;;
62990;SDS011;49084;48.204;16.202;2023-02-01T06:00:39;3.40;;;2.58;;
62990;SDS011;49084;48.204;16.202;2023-02-01T06:03:05;4.18;;;2.58;;
62990;SDS011;49084;48.204;16.202;2023-02-01T06:05:31;2.75;;;2.17;;
62990;SDS011;49084;48.204;16.202;2023-02-01T06:07:57;3.60;;;2.50;;
62990;SDS011;49084;48.204;16.202;2023-02-01T06:10:23;3.92;;;2.65;;
62990;SDS011;49084;48.204;16.202;2023-02-01T06:12:49;5.28;;;2.72;;
62990;SDS011;49084;48.204;16.202;2023-02-01T06:15:15;4.55;;;3.25;;
